sensor_id;sensor_type;location;lat;lon;timestamp;temperature;humidity
66119;DHT22;52912;48.564;9.302;2022-08-04T00:00:30;22.90;62.54
66119;DHT22;52912;48.564;9.302;2022-08-04T00:03:13;22.85;63.16
66119;DHT22;52912;48.564;9.302;2022-08-04T00:05:51;22.68;64.25
66119;DHT22;52912;48.564;9.302;2022-08-04T00:08:29;22.84;63.20
66119;DHT22;52912;48.564;9.302;2022-08-04T00:10:59;22.79;63.41
66119;DHT22;52912;48.564;9.302;2022-08-04T00:13:26;22.65;63.69
66119;DHT22;52912;48.564;9.302;2022-08-04T00:15:53;22.75;63.45
66119;DHT22;52912;48.564;9.302;2022-08-04T00:18:26;22.41;65.02
66119;DHT22;52912;48.564;9.302;2022-08-04T00:20:53;22.65;64.09
66119;DHT22;52912;48.564;9.302;2022-08-04T00:23:22;22.48;64.14
66119;DHT22;52912;48.564;9.302;2022-08-04T00:25:48;22.35;64.39
66119;DHT22;52912;48.564;9.302;2022-08-04T00:28:14;22.37;64.76
66119;DHT22;52912;48.564;9.302;2022-08-04T00:30:41;22.16;65.92
66119;DHT22;52912;48.564;9.302;2022-08-04T00:33:07;22.33;65.14
66119;DHT22;52912;48.564;9.302;2022-08-04T00:35:33;22.30;65.04
66119;DHT22;52912;48.564;9.302;2022-08-04T00:37:59;22.36;65.25
66119;DHT22;52912;48.564;9.302;2022-08-04T00:40:32;22.44;65.13
66119;DHT22;52912;48.564;9.302;2022-08-04T00:43:07;22.46;64.93
66119;DHT22;52912;48.564;9.302;2022-08-04T00:46:01;22.30;65.58
66119;DHT22;52912;48.564;9.302;2022-08-04T00:48:41;22.10;66.34
66119;DHT22;52912;48.564;9.302;2022-08-04T00:51:17;21.79;67.37
66119;DHT22;52912;48.564;9.302;2022-08-04T00:53:54;21.89;67.32
66119;DHT22;52912;48.564;9.302;2022-08-04T00:56:36;21.79;68.36
66119;DHT22;52912;48.564;9.302;2022-08-04T00:59:15;21.85;67.97
66119;DHT22;52912;48.564;9.302;2022-08-04T01:01:56;21.81;68.00
66119;DHT22;52912;48.564;9.302;2022-08-04T01:04:28;21.91;68.47
66119;DHT22;52912;48.564;9.302;2022-08-04T01:07:12;21.82;68.38
66119;DHT22;52912;48.564;9.302;2022-08-04T01:09:45;21.84;67.85
66119;DHT22;52912;48.564;9.302;2022-08-04T01:12:26;21.89;67.13
66119;DHT22;52912;48.564;9.302;2022-08-04T01:15:04;21.98;67.46
66119;DHT22;52912;48.564;9.302;2022-08-04T01:17:40;21.92;67.72
66119;DHT22;52912;48.564;9.302;2022-08-04T01:20:09;21.94;68.44
66119;DHT22;52912;48.564;9.302;2022-08-04T01:23:20;21.85;68.87
66119;DHT22;52912;48.564;9.302;2022-08-04T01:29:12;21.55;69.95
66119;DHT22;52912;48.564;9.302;2022-08-04T01:31:49;21.54;69.61
66119;DHT22;52912;48.564;9.302;2022-08-04T01:34:16;21.49;70.11
66119;DHT22;52912;48.564;9.302;2022-08-04T01:36:46;21.60;69.81
66119;DHT22;52912;48.564;9.302;2022-08-04T01:39:13;21.57;70.07
66119;DHT22;52912;48.564;9.302;2022-08-04T01:41:39;21.34;68.43
66119;DHT22;52912;48.564;9.302;2022-08-04T01:44:05;21.47;65.91
66119;DHT22;52912;48.564;9.302;2022-08-04T01:46:34;21.33;69.35
66119;DHT22;52912;48.564;9.302;2022-08-04T01:49:01;21.27;67.94
66119;DHT22;52912;48.564;9.302;2022-08-04T01:51:27;21.34;67.91
66119;DHT22;52912;48.564;9.302;2022-08-04T01:53:53;21.30;70.39
66119;DHT22;52912;48.564;9.302;2022-08-04T01:56:19;21.39;70.11
66119;DHT22;52912;48.564;9.302;2022-08-04T01:58:45;21.19;70.35
66119;DHT22;52912;48.564;9.302;2022-08-04T02:01:12;21.22;70.07
66119;DHT22;52912;48.564;9.302;2022-08-04T02:03:41;21.16;69.50
66119;DHT22;52912;48.564;9.302;2022-08-04T02:06:17;21.26;69.67
66119;DHT22;52912;48.564;9.302;2022-08-04T02:08:50;21.24;68.91
66119;DHT22;52912;48.564;9.302;2022-08-04T02:11:20;21.27;67.42
66119;DHT22;52912;48.564;9.302;2022-08-04T02:13:53;21.24;67.28
66119;DHT22;52912;48.564;9.302;2022-08-04T02:16:28;21.20;67.66
66119;DHT22;52912;48.564;9.302;2022-08-04T02:19:00;21.18;67.77
66119;DHT22;52912;48.564;9.302;2022-08-04T02:21:27;21.12;67.63
66119;DHT22;52912;48.564;9.302;2022-08-04T02:23:59;21.18;67.86
66119;DHT22;52912;48.564;9.302;2022-08-04T02:26:27;21.06;68.31
66119;DHT22;52912;48.564;9.302;2022-08-04T02:29:00;21.10;67.90
66119;DHT22;52912;48.564;9.302;2022-08-04T02:31:31;21.20;68.21
66119;DHT22;52912;48.564;9.302;2022-08-04T02:34:05;21.06;68.74
66119;DHT22;52912;48.564;9.302;2022-08-04T02:36:35;21.18;68.85
66119;DHT22;52912;48.564;9.302;2022-08-04T02:39:02;21.06;68.85
66119;DHT22;52912;48.564;9.302;2022-08-04T02:41:29;21.03;69.62
66119;DHT22;52912;48.564;9.302;2022-08-04T02:43:57;20.95;70.08
66119;DHT22;52912;48.564;9.302;2022-08-04T02:46:23;20.84;69.93
66119;DHT22;52912;48.564;9.302;2022-08-04T02:48:50;20.85;70.44
66119;DHT22;52912;48.564;9.302;2022-08-04T02:51:22;20.85;70.30
66119;DHT22;52912;48.564;9.302;2022-08-04T02:53:52;20.81;70.62
66119;DHT22;52912;48.564;9.302;2022-08-04T02:56:18;20.85;70.73
66119;DHT22;52912;48.564;9.302;2022-08-04T02:58:45;20.75;70.98
66119;DHT22;52912;48.564;9.302;2022-08-04T03:01:13;20.63;71.26
66119;DHT22;52912;48.564;9.302;2022-08-04T03:03:41;20.53;71.31
66119;DHT22;52912;48.564;9.302;2022-08-04T03:06:52;20.55;70.94
66119;DHT22;52912;48.564;9.302;2022-08-04T03:10:00;20.51;71.12
66119;DHT22;52912;48.564;9.302;2022-08-04T03:15:54;20.55;70.95
66119;DHT22;52912;48.564;9.302;2022-08-04T03:18:56;20.40;71.76
66119;DHT22;52912;48.564;9.302;2022-08-04T03:28:07;20.26;71.70
66119;DHT22;52912;48.564;9.302;2022-08-04T03:30:49;20.26;72.05
66119;DHT22;52912;48.564;9.302;2022-08-04T03:33:44;20.20;72.48
66119;DHT22;52912;48.564;9.302;2022-08-04T03:37:04;20.12;72.20
66119;DHT22;52912;48.564;9.302;2022-08-04T03:43:08;19.95;72.47
66119;DHT22;52912;48.564;9.302;2022-08-04T03:49:30;19.77;72.15
66119;DHT22;52912;48.564;9.302;2022-08-04T03:52:12;19.81;72.27
66119;DHT22;52912;48.564;9.302;2022-08-04T03:54:58;19.72;72.31
66119;DHT22;52912;48.564;9.302;2022-08-04T03:57:56;19.85;71.62
66119;DHT22;52912;48.564;9.302;2022-08-04T04:00:28;19.96;71.30
66119;DHT22;52912;48.564;9.302;2022-08-04T04:03:24;19.96;71.07
66119;DHT22;52912;48.564;9.302;2022-08-04T04:09:26;19.79;70.58
66119;DHT22;52912;48.564;9.302;2022-08-04T04:12:25;19.96;70.56
66119;DHT22;52912;48.564;9.302;2022-08-04T04:15:02;19.83;71.10
66119;DHT22;52912;48.564;9.302;2022-08-04T04:17:46;19.71;71.51
66119;DHT22;52912;48.564;9.302;2022-08-04T04:20:37;19.75;71.43
66119;DHT22;52912;48.564;9.302;2022-08-04T04:23:25;19.71;72.00
66119;DHT22;52912;48.564;9.302;2022-08-04T04:26:05;19.51;73.01
66119;DHT22;52912;48.564;9.302;2022-08-04T04:28:49;19.46;72.08
66119;DHT22;52912;48.564;9.302;2022-08-04T04:31:40;19.60;72.10
66119;DHT22;52912;48.564;9.302;2022-08-04T04:34:22;19.55;71.51
66119;DHT22;52912;48.564;9.302;2022-08-04T04:36:59;19.57;71.27
66119;DHT22;52912;48.564;9.302;2022-08-04T04:39:31;19.74;70.94
66119;DHT22;52912;48.564;9.302;2022-08-04T04:42:31;19.82;70.62
66119;DHT22;52912;48.564;9.302;2022-08-04T04:45:19;19.89;70.56
66119;DHT22;52912;48.564;9.302;2022-08-04T04:47:57;19.99;71.40
66119;DHT22;52912;48.564;9.302;2022-08-04T04:50:33;20.04;71.96
66119;DHT22;52912;48.564;9.302;2022-08-04T04:53:05;20.06;72.03
66119;DHT22;52912;48.564;9.302;2022-08-04T04:55:40;20.22;71.42
66119;DHT22;52912;48.564;9.302;2022-08-04T04:58:10;20.27;71.80
66119;DHT22;52912;48.564;9.302;2022-08-04T05:00:51;20.25;71.44
66119;DHT22;52912;48.564;9.302;2022-08-04T05:03:40;20.29;71.66
66119;DHT22;52912;48.564;9.302;2022-08-04T05:06:27;20.43;70.49
66119;DHT22;52912;48.564;9.302;2022-08-04T05:09:09;20.54;70.42
66119;DHT22;52912;48.564;9.302;2022-08-04T05:12:01;20.57;69.67
66119;DHT22;52912;48.564;9.302;2022-08-04T05:14:36;20.58;70.35
66119;DHT22;52912;48.564;9.302;2022-08-04T05:17:05;20.70;69.36
66119;DHT22;52912;48.564;9.302;2022-08-04T05:19:46;20.81;69.67
66119;DHT22;52912;48.564;9.302;2022-08-04T05:22:19;20.82;72.13
66119;DHT22;52912;48.564;9.302;2022-08-04T05:24:48;20.98;72.23
66119;DHT22;52912;48.564;9.302;2022-08-04T05:27:18;21.12;72.87
66119;DHT22;52912;48.564;9.302;2022-08-04T05:29:45;20.96;74.33
66119;DHT22;52912;48.564;9.302;2022-08-04T05:32:15;21.16;73.21
66119;DHT22;52912;48.564;9.302;2022-08-04T05:34:46;21.20;72.57
66119;DHT22;52912;48.564;9.302;2022-08-04T05:37:15;21.19;72.52
66119;DHT22;52912;48.564;9.302;2022-08-04T05:39:43;21.32;72.16
66119;DHT22;52912;48.564;9.302;2022-08-04T05:42:10;21.44;69.69
66119;DHT22;52912;48.564;9.302;2022-08-04T05:44:37;21.61;67.13
66119;DHT22;52912;48.564;9.302;2022-08-04T05:47:04;21.79;65.75
66119;DHT22;52912;48.564;9.302;2022-08-04T05:49:30;21.99;65.37
66119;DHT22;52912;48.564;9.302;2022-08-04T05:52:00;22.22;64.16
66119;DHT22;52912;48.564;9.302;2022-08-04T05:54:26;22.33;64.05
66119;DHT22;52912;48.564;9.302;2022-08-04T05:56:53;22.33;63.81
66119;DHT22;52912;48.564;9.302;2022-08-04T05:59:19;22.39;64.24
66119;DHT22;52912;48.564;9.302;2022-08-04T06:01:46;22.36;63.87
66119;DHT22;52912;48.564;9.302;2022-08-04T06:04:12;22.41;63.54
66119;DHT22;52912;48.564;9.302;2022-08-04T06:06:39;22.44;63.42
66119;DHT22;52912;48.564;9.302;2022-08-04T06:09:07;22.58;62.77
66119;DHT22;52912;48.564;9.302;2022-08-04T06:11:34;22.71;63.11
66119;DHT22;52912;48.564;9.302;2022-08-04T06:14:02;22.82;62.67
66119;DHT22;52912;48.564;9.302;2022-08-04T06:16:37;22.81;61.83
66119;DHT22;52912;48.564;9.302;2022-08-04T06:19:05;22.94;61.79
66119;DHT22;52912;48.564;9.302;2022-08-04T06:21:33;23.08;60.84
66119;DHT22;52912;48.564;9.302;2022-08-04T06:23:59;23.12;61.74
66119;DHT22;52912;48.564;9.302;2022-08-04T06:26:27;23.24;62.02
66119;DHT22;52912;48.564;9.302;2022-08-04T06:28:55;23.36;61.75
66119;DHT22;52912;48.564;9.302;2022-08-04T06:31:22;23.40;62.03
66119;DHT22;52912;48.564;9.302;2022-08-04T06:33:49;23.55;62.08
66119;DHT22;52912;48.564;9.302;2022-08-04T06:36:15;23.58;61.06
66119;DHT22;52912;48.564;9.302;2022-08-04T06:38:41;23.64;60.48
66119;DHT22;52912;48.564;9.302;2022-08-04T06:41:07;23.70;60.80
66119;DHT22;52912;48.564;9.302;2022-08-04T06:43:35;23.78;60.98
66119;DHT22;52912;48.564;9.302;2022-08-04T06:46:03;23.94;59.70
66119;DHT22;52912;48.564;9.302;2022-08-04T06:48:30;24.05;59.90
66119;DHT22;52912;48.564;9.302;2022-08-04T06:50:56;24.16;59.08
66119;DHT22;52912;48.564;9.302;2022-08-04T06:53:23;24.25;59.16
66119;DHT22;52912;48.564;9.302;2022-08-04T06:55:49;24.36;58.51
66119;DHT22;52912;48.564;9.302;2022-08-04T06:58:17;24.47;58.05
66119;DHT22;52912;48.564;9.302;2022-08-04T07:00:46;24.61;57.33
66119;DHT22;52912;48.564;9.302;2022-08-04T07:03:12;24.75;57.82
66119;DHT22;52912;48.564;9.302;2022-08-04T07:05:39;24.82;57.38
66119;DHT22;52912;48.564;9.302;2022-08-04T07:08:05;24.96;56.87
66119;DHT22;52912;48.564;9.302;2022-08-04T07:10:31;25.05;56.67
66119;DHT22;52912;48.564;9.302;2022-08-04T07:12:58;25.09;57.36
66119;DHT22;52912;48.564;9.302;2022-08-04T07:15:24;25.26;56.77
66119;DHT22;52912;48.564;9.302;2022-08-04T07:17:52;25.44;56.42
66119;DHT22;52912;48.564;9.302;2022-08-04T07:20:19;25.56;56.36
66119;DHT22;52912;48.564;9.302;2022-08-04T07:22:45;25.66;56.57
66119;DHT22;52912;48.564;9.302;2022-08-04T07:25:14;25.80;55.98
66119;DHT22;52912;48.564;9.302;2022-08-04T07:27:41;25.85;56.63
66119;DHT22;52912;48.564;9.302;2022-08-04T07:30:07;25.96;57.73
66119;DHT22;52912;48.564;9.302;2022-08-04T07:32:34;26.13;57.76
66119;DHT22;52912;48.564;9.302;2022-08-04T07:35:01;26.16;57.65
66119;DHT22;52912;48.564;9.302;2022-08-04T07:37:27;26.40;56.41
66119;DHT22;52912;48.564;9.302;2022-08-04T07:39:52;26.56;56.84
66119;DHT22;52912;48.564;9.302;2022-08-04T07:42:19;26.64;56.26
66119;DHT22;52912;48.564;9.302;2022-08-04T07:44:44;26.74;55.90
66119;DHT22;52912;48.564;9.302;2022-08-04T07:47:10;27.03;55.29
66119;DHT22;52912;48.564;9.302;2022-08-04T07:49:36;27.19;54.87
66119;DHT22;52912;48.564;9.302;2022-08-04T07:52:04;27.45;54.95
66119;DHT22;52912;48.564;9.302;2022-08-04T07:54:30;27.46;54.40
66119;DHT22;52912;48.564;9.302;2022-08-04T07:56:57;27.90;54.39
66119;DHT22;52912;48.564;9.302;2022-08-04T07:59:22;28.15;54.35
66119;DHT22;52912;48.564;9.302;2022-08-04T08:01:48;28.27;53.99
66119;DHT22;52912;48.564;9.302;2022-08-04T08:04:14;28.32;52.46
66119;DHT22;52912;48.564;9.302;2022-08-04T08:06:41;28.52;51.84
66119;DHT22;52912;48.564;9.302;2022-08-04T08:09:09;28.70;53.35
66119;DHT22;52912;48.564;9.302;2022-08-04T08:11:36;28.81;52.56
66119;DHT22;52912;48.564;9.302;2022-08-04T08:14:02;28.77;52.50
66119;DHT22;52912;48.564;9.302;2022-08-04T08:16:28;29.06;53.17
66119;DHT22;52912;48.564;9.302;2022-08-04T08:18:54;29.06;52.56
66119;DHT22;52912;48.564;9.302;2022-08-04T08:21:20;29.04;53.34
66119;DHT22;52912;48.564;9.302;2022-08-04T08:23:46;29.22;53.53
66119;DHT22;52912;48.564;9.302;2022-08-04T08:26:13;29.39;53.90
66119;DHT22;52912;48.564;9.302;2022-08-04T08:28:39;29.71;53.52
66119;DHT22;52912;48.564;9.302;2022-08-04T08:31:05;30.08;53.59
66119;DHT22;52912;48.564;9.302;2022-08-04T08:33:31;30.15;50.77
66119;DHT22;52912;48.564;9.302;2022-08-04T08:36:02;30.44;51.97
66119;DHT22;52912;48.564;9.302;2022-08-04T08:38:38;30.30;51.19
66119;DHT22;52912;48.564;9.302;2022-08-04T08:41:34;30.55;51.06
66119;DHT22;52912;48.564;9.302;2022-08-04T08:47:31;30.98;50.99
66119;DHT22;52912;48.564;9.302;2022-08-04T08:50:08;31.28;49.10
66119;DHT22;52912;48.564;9.302;2022-08-04T08:52:57;31.12;48.95
66119;DHT22;52912;48.564;9.302;2022-08-04T08:55:36;31.50;49.08
66119;DHT22;52912;48.564;9.302;2022-08-04T08:58:22;32.00;47.40
66119;DHT22;52912;48.564;9.302;2022-08-04T09:00:54;32.14;47.65
66119;DHT22;52912;48.564;9.302;2022-08-04T09:03:34;32.31;47.70
66119;DHT22;52912;48.564;9.302;2022-08-04T09:06:24;32.39;46.76
66119;DHT22;52912;48.564;9.302;2022-08-04T09:09:05;32.60;46.62
66119;DHT22;52912;48.564;9.302;2022-08-04T09:11:38;32.98;45.96
66119;DHT22;52912;48.564;9.302;2022-08-04T09:14:14;33.24;46.08
66119;DHT22;52912;48.564;9.302;2022-08-04T09:16:44;33.18;45.82
66119;DHT22;52912;48.564;9.302;2022-08-04T09:19:16;33.31;45.34
66119;DHT22;52912;48.564;9.302;2022-08-04T09:21:48;33.58;43.24
66119;DHT22;52912;48.564;9.302;2022-08-04T09:24:19;33.52;43.32
66119;DHT22;52912;48.564;9.302;2022-08-04T09:26:50;33.48;43.16
66119;DHT22;52912;48.564;9.302;2022-08-04T09:29:25;33.38;42.90
66119;DHT22;52912;48.564;9.302;2022-08-04T09:31:56;33.67;41.64
66119;DHT22;52912;48.564;9.302;2022-08-04T09:34:31;34.17;41.35
66119;DHT22;52912;48.564;9.302;2022-08-04T09:37:03;34.41;40.61
66119;DHT22;52912;48.564;9.302;2022-08-04T09:39:36;34.62;38.54
66119;DHT22;52912;48.564;9.302;2022-08-04T09:42:12;34.52;37.38
66119;DHT22;52912;48.564;9.302;2022-08-04T09:44:49;34.52;39.74
66119;DHT22;52912;48.564;9.302;2022-08-04T09:47:21;34.87;40.73
66119;DHT22;52912;48.564;9.302;2022-08-04T09:49:54;34.93;39.07
66119;DHT22;52912;48.564;9.302;2022-08-04T09:52:27;35.13;38.85
66119;DHT22;52912;48.564;9.302;2022-08-04T09:55:02;35.10;39.15
66119;DHT22;52912;48.564;9.302;2022-08-04T09:57:41;35.18;38.84
66119;DHT22;52912;48.564;9.302;2022-08-04T10:00:13;35.18;37.72
66119;DHT22;52912;48.564;9.302;2022-08-04T10:02:40;35.37;37.93
66119;DHT22;52912;48.564;9.302;2022-08-04T10:05:10;35.61;37.72
66119;DHT22;52912;48.564;9.302;2022-08-04T10:08:01;35.70;36.86
66119;DHT22;52912;48.564;9.302;2022-08-04T10:10:34;35.85;36.06
66119;DHT22;52912;48.564;9.302;2022-08-04T10:13:19;36.00;38.05
66119;DHT22;52912;48.564;9.302;2022-08-04T10:15:59;36.19;36.27
66119;DHT22;52912;48.564;9.302;2022-08-04T10:18:38;36.04;37.13
66119;DHT22;52912;48.564;9.302;2022-08-04T10:21:12;36.40;36.78
66119;DHT22;52912;48.564;9.302;2022-08-04T10:23:51;36.55;37.02
66119;DHT22;52912;48.564;9.302;2022-08-04T10:26:34;36.78;34.48
66119;DHT22;52912;48.564;9.302;2022-08-04T10:29:04;36.78;35.54
66119;DHT22;52912;48.564;9.302;2022-08-04T10:31:36;37.00;34.41
66119;DHT22;52912;48.564;9.302;2022-08-04T10:34:10;37.04;32.11
66119;DHT22;52912;48.564;9.302;2022-08-04T10:36:40;37.16;31.99
66119;DHT22;52912;48.564;9.302;2022-08-04T10:39:12;37.21;33.12
66119;DHT22;52912;48.564;9.302;2022-08-04T10:41:49;37.33;29.69
66119;DHT22;52912;48.564;9.302;2022-08-04T10:44:17;37.42;31.04
66119;DHT22;52912;48.564;9.302;2022-08-04T10:46:51;37.75;27.50
66119;DHT22;52912;48.564;9.302;2022-08-04T10:49:21;37.86;27.92
66119;DHT22;52912;48.564;9.302;2022-08-04T10:51:50;37.76;29.74
66119;DHT22;52912;48.564;9.302;2022-08-04T10:54:21;37.93;29.42
66119;DHT22;52912;48.564;9.302;2022-08-04T10:56:52;38.02;29.57
66119;DHT22;52912;48.564;9.302;2022-08-04T10:59:25;38.00;30.06
66119;DHT22;52912;48.564;9.302;2022-08-04T11:01:58;38.47;27.20
66119;DHT22;52912;48.564;9.302;2022-08-04T11:04:36;38.83;27.07
66119;DHT22;52912;48.564;9.302;2022-08-04T11:07:05;39.02;26.94
66119;DHT22;52912;48.564;9.302;2022-08-04T11:09:32;38.86;28.03
66119;DHT22;52912;48.564;9.302;2022-08-04T11:12:03;38.74;26.35
66119;DHT22;52912;48.564;9.302;2022-08-04T11:14:36;38.95;27.94
66119;DHT22;52912;48.564;9.302;2022-08-04T11:17:08;39.24;27.72
66119;DHT22;52912;48.564;9.302;2022-08-04T11:19:41;39.10;29.57
66119;DHT22;52912;48.564;9.302;2022-08-04T11:22:14;39.27;28.04
66119;DHT22;52912;48.564;9.302;2022-08-04T11:24:57;39.40;28.26
66119;DHT22;52912;48.564;9.302;2022-08-04T11:27:28;39.29;28.23
66119;DHT22;52912;48.564;9.302;2022-08-04T11:30:04;39.77;28.22
66119;DHT22;52912;48.564;9.302;2022-08-04T11:32:36;39.85;26.46
66119;DHT22;52912;48.564;9.302;2022-08-04T11:35:08;39.92;25.81
66119;DHT22;52912;48.564;9.302;2022-08-04T11:37:43;39.78;27.88
66119;DHT22;52912;48.564;9.302;2022-08-04T11:40:15;40.03;27.09
66119;DHT22;52912;48.564;9.302;2022-08-04T11:42:52;39.37;28.33
66119;DHT22;52912;48.564;9.302;2022-08-04T11:45:24;39.47;28.15
66119;DHT22;52912;48.564;9.302;2022-08-04T11:47:57;39.96;27.56
66119;DHT22;52912;48.564;9.302;2022-08-04T11:50:28;39.71;28.10
66119;DHT22;52912;48.564;9.302;2022-08-04T11:52:57;38.51;27.85
66119;DHT22;52912;48.564;9.302;2022-08-04T11:55:27;39.58;27.20
66119;DHT22;52912;48.564;9.302;2022-08-04T11:57:53;39.39;27.47
66119;DHT22;52912;48.564;9.302;2022-08-04T12:00:19;38.61;28.14
66119;DHT22;52912;48.564;9.302;2022-08-04T12:03:18;38.28;28.65
66119;DHT22;52912;48.564;9.302;2022-08-04T12:05:50;39.41;27.33
66119;DHT22;52912;48.564;9.302;2022-08-04T12:08:26;39.46;26.35
66119;DHT22;52912;48.564;9.302;2022-08-04T12:11:04;40.09;26.44
66119;DHT22;52912;48.564;9.302;2022-08-04T12:13:35;39.67;26.78
66119;DHT22;52912;48.564;9.302;2022-08-04T12:16:12;39.91;27.22
66119;DHT22;52912;48.564;9.302;2022-08-04T12:18:45;40.02;26.45
66119;DHT22;52912;48.564;9.302;2022-08-04T12:21:24;39.68;26.76
66119;DHT22;52912;48.564;9.302;2022-08-04T12:23:56;39.81;27.07
66119;DHT22;52912;48.564;9.302;2022-08-04T12:26:27;39.89;27.05
66119;DHT22;52912;48.564;9.302;2022-08-04T12:28:58;39.74;26.64
66119;DHT22;52912;48.564;9.302;2022-08-04T12:31:26;39.50;27.95
66119;DHT22;52912;48.564;9.302;2022-08-04T12:33:57;39.84;26.63
66119;DHT22;52912;48.564;9.302;2022-08-04T12:36:28;39.82;26.92
66119;DHT22;52912;48.564;9.302;2022-08-04T12:39:00;38.57;27.92
66119;DHT22;52912;48.564;9.302;2022-08-04T12:41:31;38.88;28.06
66119;DHT22;52912;48.564;9.302;2022-08-04T12:44:04;39.19;27.87
66119;DHT22;52912;48.564;9.302;2022-08-04T12:46:31;39.16;28.05
66119;DHT22;52912;48.564;9.302;2022-08-04T12:49:00;39.77;26.96
66119;DHT22;52912;48.564;9.302;2022-08-04T12:51:27;39.91;27.30
66119;DHT22;52912;48.564;9.302;2022-08-04T12:53:55;40.08;27.55
66119;DHT22;52912;48.564;9.302;2022-08-04T12:56:25;40.13;26.30
66119;DHT22;52912;48.564;9.302;2022-08-04T12:58:52;40.09;27.35
66119;DHT22;52912;48.564;9.302;2022-08-04T13:01:19;39.91;26.83
66119;DHT22;52912;48.564;9.302;2022-08-04T13:03:52;39.82;27.36
66119;DHT22;52912;48.564;9.302;2022-08-04T13:06:27;40.53;26.55
66119;DHT22;52912;48.564;9.302;2022-08-04T13:08:55;40.24;27.47
66119;DHT22;52912;48.564;9.302;2022-08-04T13:11:26;40.08;27.16
66119;DHT22;52912;48.564;9.302;2022-08-04T13:13:54;39.72;27.21
66119;DHT22;52912;48.564;9.302;2022-08-04T13:16:29;40.30;26.84
66119;DHT22;52912;48.564;9.302;2022-08-04T13:18:55;40.63;26.70
66119;DHT22;52912;48.564;9.302;2022-08-04T13:21:26;40.57;26.39
66119;DHT22;52912;48.564;9.302;2022-08-04T13:23:57;40.81;26.49
66119;DHT22;52912;48.564;9.302;2022-08-04T13:26:27;40.20;26.69
66119;DHT22;52912;48.564;9.302;2022-08-04T13:28:53;40.64;26.61
66119;DHT22;52912;48.564;9.302;2022-08-04T13:31:23;40.56;26.89
66119;DHT22;52912;48.564;9.302;2022-08-04T13:33:52;41.10;25.90
66119;DHT22;52912;48.564;9.302;2022-08-04T13:36:24;40.80;25.52
66119;DHT22;52912;48.564;9.302;2022-08-04T13:38:53;40.24;26.18
66119;DHT22;52912;48.564;9.302;2022-08-04T13:41:20;39.98;26.31
66119;DHT22;52912;48.564;9.302;2022-08-04T13:43:48;39.96;26.00
66119;DHT22;52912;48.564;9.302;2022-08-04T13:46:15;40.22;25.76
66119;DHT22;52912;48.564;9.302;2022-08-04T13:48:43;40.77;25.29
66119;DHT22;52912;48.564;9.302;2022-08-04T13:51:10;41.05;24.86
66119;DHT22;52912;48.564;9.302;2022-08-04T13:53:39;41.56;24.23
66119;DHT22;52912;48.564;9.302;2022-08-04T13:56:08;41.70;25.01
66119;DHT22;52912;48.564;9.302;2022-08-04T13:58:38;42.23;24.82
66119;DHT22;52912;48.564;9.302;2022-08-04T14:01:09;41.26;25.50
66119;DHT22;52912;48.564;9.302;2022-08-04T14:03:38;41.80;25.40
66119;DHT22;52912;48.564;9.302;2022-08-04T14:06:08;40.92;25.78
66119;DHT22;52912;48.564;9.302;2022-08-04T14:08:41;41.22;25.44
66119;DHT22;52912;48.564;9.302;2022-08-04T14:11:08;41.39;25.04
66119;DHT22;52912;48.564;9.302;2022-08-04T14:13:34;42.01;24.57
66119;DHT22;52912;48.564;9.302;2022-08-04T14:16:00;42.21;24.71
66119;DHT22;52912;48.564;9.302;2022-08-04T14:18:27;41.02;26.10
66119;DHT22;52912;48.564;9.302;2022-08-04T14:21:02;41.08;26.12
66119;DHT22;52912;48.564;9.302;2022-08-04T14:23:39;40.43;26.70
66119;DHT22;52912;48.564;9.302;2022-08-04T14:26:20;40.96;26.78
66119;DHT22;52912;48.564;9.302;2022-08-04T14:28:46;41.08;25.79
66119;DHT22;52912;48.564;9.302;2022-08-04T14:31:14;41.32;25.96
66119;DHT22;52912;48.564;9.302;2022-08-04T14:33:41;41.36;26.08
66119;DHT22;52912;48.564;9.302;2022-08-04T14:36:08;40.67;26.32
66119;DHT22;52912;48.564;9.302;2022-08-04T14:38:44;41.76;25.03
66119;DHT22;52912;48.564;9.302;2022-08-04T14:41:10;42.35;24.83
66119;DHT22;52912;48.564;9.302;2022-08-04T14:43:41;41.69;25.68
66119;DHT22;52912;48.564;9.302;2022-08-04T14:46:07;41.18;25.83
66119;DHT22;52912;48.564;9.302;2022-08-04T14:48:33;41.74;26.10
66119;DHT22;52912;48.564;9.302;2022-08-04T14:50:58;42.09;25.48
66119;DHT22;52912;48.564;9.302;2022-08-04T14:53:24;40.03;27.25
66119;DHT22;52912;48.564;9.302;2022-08-04T14:55:53;40.33;27.70
66119;DHT22;52912;48.564;9.302;2022-08-04T14:58:21;40.29;26.84
66119;DHT22;52912;48.564;9.302;2022-08-04T15:00:48;40.57;26.76
66119;DHT22;52912;48.564;9.302;2022-08-04T15:03:14;39.88;27.43
66119;DHT22;52912;48.564;9.302;2022-08-04T15:05:43;39.54;27.04
66119;DHT22;52912;48.564;9.302;2022-08-04T15:08:09;40.28;26.20
66119;DHT22;52912;48.564;9.302;2022-08-04T15:10:36;40.22;26.31
66119;DHT22;52912;48.564;9.302;2022-08-04T15:13:03;40.91;27.34
66119;DHT22;52912;48.564;9.302;2022-08-04T15:15:29;40.48;26.88
66119;DHT22;52912;48.564;9.302;2022-08-04T15:17:55;41.30;27.11
66119;DHT22;52912;48.564;9.302;2022-08-04T15:20:21;41.12;26.59
66119;DHT22;52912;48.564;9.302;2022-08-04T15:22:47;39.95;27.48
66119;DHT22;52912;48.564;9.302;2022-08-04T15:25:13;39.49;27.72
66119;DHT22;52912;48.564;9.302;2022-08-04T15:27:40;39.33;28.03
66119;DHT22;52912;48.564;9.302;2022-08-04T15:30:09;38.94;28.13
66119;DHT22;52912;48.564;9.302;2022-08-04T15:32:38;40.30;26.95
66119;DHT22;52912;48.564;9.302;2022-08-04T15:35:07;40.08;27.49
66119;DHT22;52912;48.564;9.302;2022-08-04T15:37:53;40.63;27.14
66119;DHT22;52912;48.564;9.302;2022-08-04T15:40:27;40.80;27.09
66119;DHT22;52912;48.564;9.302;2022-08-04T15:43:04;39.68;27.56
66119;DHT22;52912;48.564;9.302;2022-08-04T15:45:47;39.92;27.27
66119;DHT22;52912;48.564;9.302;2022-08-04T15:48:31;40.30;27.89
66119;DHT22;52912;48.564;9.302;2022-08-04T15:51:05;41.23;26.58
66119;DHT22;52912;48.564;9.302;2022-08-04T15:53:32;40.05;27.74
66119;DHT22;52912;48.564;9.302;2022-08-04T15:56:42;40.78;27.30
66119;DHT22;52912;48.564;9.302;2022-08-04T15:59:08;41.21;26.42
66119;DHT22;52912;48.564;9.302;2022-08-04T16:01:35;39.88;28.10
66119;DHT22;52912;48.564;9.302;2022-08-04T16:04:19;39.31;27.88
66119;DHT22;52912;48.564;9.302;2022-08-04T16:06:45;38.75;28.70
66119;DHT22;52912;48.564;9.302;2022-08-04T16:09:24;38.57;28.72
66119;DHT22;52912;48.564;9.302;2022-08-04T16:11:50;39.43;27.91
66119;DHT22;52912;48.564;9.302;2022-08-04T16:14:15;39.33;28.20
66119;DHT22;52912;48.564;9.302;2022-08-04T16:16:47;39.54;28.41
66119;DHT22;52912;48.564;9.302;2022-08-04T16:19:22;39.27;28.68
66119;DHT22;52912;48.564;9.302;2022-08-04T16:21:51;39.20;29.26
66119;DHT22;52912;48.564;9.302;2022-08-04T16:24:18;38.52;29.67
66119;DHT22;52912;48.564;9.302;2022-08-04T16:26:49;38.40;29.17
66119;DHT22;52912;48.564;9.302;2022-08-04T16:29:39;38.16;29.69